createdAt,value
2018-03-16T00:00:39.041Z,97581.70
2018-03-16T00:03:07.415Z,97588.67
2018-03-16T00:05:36.449Z,97585.28
2018-03-16T00:08:04.374Z,97587.08
2018-03-16T00:10:32.167Z,97586.03
2018-03-16T00:12:59.887Z,97586.27
2018-03-16T00:15:28.616Z,97587.41
2018-03-16T00:17:56.144Z,97595.02
2018-03-16T00:20:24.020Z,97599.55
2018-03-16T00:22:53.031Z,97598.84
2018-03-16T00:25:21.277Z,97596.56
2018-03-16T00:27:49.000Z,97607.68
2018-03-16T00:30:16.556Z,97598.97
2018-03-16T00:32:44.083Z,97607.95
2018-03-16T00:35:12.654Z,97619.86
2018-03-16T00:37:40.185Z,97610.66
2018-03-16T00:40:07.743Z,97610.00
2018-03-16T00:42:35.292Z,97611.28
2018-03-16T00:45:02.863Z,97616.03
2018-03-16T00:47:30.382Z,97620.85
2018-03-16T00:49:58.104Z,97615.67
2018-03-16T00:52:25.659Z,97627.80
2018-03-16T00:54:53.215Z,97632.59
2018-03-16T00:57:20.754Z,97623.83
2018-03-16T00:59:48.317Z,97629.63
2018-03-16T01:02:15.835Z,97628.66
2018-03-16T01:04:43.412Z,97631.43
2018-03-16T01:07:10.954Z,97631.00
2018-03-16T01:09:38.533Z,97632.94
2018-03-16T01:12:06.056Z,97626.42
2018-03-16T01:14:33.686Z,97634.06
2018-03-16T01:17:01.244Z,97637.72
2018-03-16T01:19:28.809Z,97635.25
2018-03-16T01:21:56.340Z,97644.00
2018-03-16T01:24:23.874Z,97640.14
2018-03-16T01:26:51.436Z,97651.41
2018-03-16T01:29:18.979Z,97644.17
2018-03-16T01:31:46.532Z,97640.49
2018-03-16T01:34:14.051Z,97644.02
2018-03-16T01:36:41.606Z,97642.92
2018-03-16T01:39:09.143Z,97640.48
2018-03-16T01:41:36.716Z,97640.87
2018-03-16T01:44:04.248Z,97634.33
2018-03-16T01:46:31.802Z,97630.87
2018-03-16T01:48:59.323Z,97627.11
2018-03-16T01:51:26.899Z,97629.85
2018-03-16T01:53:54.434Z,97631.31
2018-03-16T01:56:21.976Z,97627.52
2018-03-16T01:58:49.496Z,97628.89
2018-03-16T02:01:17.063Z,97625.64
2018-03-16T02:03:44.860Z,97632.56
2018-03-16T02:06:12.429Z,97631.19
2018-03-16T02:08:39.968Z,97634.00
2018-03-16T02:11:07.532Z,97633.31
2018-03-16T02:13:35.048Z,97633.89
2018-03-16T02:16:02.598Z,97630.98
2018-03-16T02:18:30.128Z,97635.02
2018-03-16T02:20:57.712Z,97638.87
2018-03-16T02:23:25.237Z,97641.20
2018-03-16T02:25:52.787Z,97638.42
2018-03-16T02:28:20.308Z,97641.09
2018-03-16T02:30:47.864Z,97638.00
2018-03-16T02:33:15.399Z,97644.20
2018-03-16T02:35:42.948Z,97634.51
2018-03-16T02:38:10.496Z,97632.33
2018-03-16T02:40:38.061Z,97636.41
2018-03-16T02:43:05.601Z,97632.95
2018-03-16T02:45:33.177Z,97630.45
2018-03-16T02:48:00.707Z,97639.38
2018-03-16T02:50:28.285Z,97630.06
2018-03-16T02:52:55.813Z,97634.44
2018-03-16T02:55:23.343Z,97635.58
2018-03-16T02:57:50.887Z,97638.20
2018-03-16T03:00:18.441Z,97638.37
2018-03-16T03:02:45.996Z,97639.66
2018-03-16T03:05:13.524Z,97633.13
2018-03-16T03:07:41.091Z,97636.34
2018-03-16T03:10:08.626Z,97636.77
2018-03-16T03:12:36.176Z,97636.22
2018-03-16T03:15:03.708Z,97641.33
2018-03-16T03:17:31.265Z,97645.37
2018-03-16T03:19:58.795Z,97654.41
2018-03-16T03:22:26.339Z,97643.02
2018-03-16T03:24:53.857Z,97648.22
2018-03-16T03:27:21.425Z,97646.31
2018-03-16T03:29:48.946Z,97647.10
2018-03-16T03:32:16.525Z,97656.59
2018-03-16T03:34:44.046Z,97652.78
2018-03-16T03:37:11.592Z,97654.98
2018-03-16T03:39:39.152Z,97654.58
2018-03-16T03:42:06.731Z,97658.15
2018-03-16T03:44:34.246Z,97655.88
2018-03-16T03:47:01.800Z,97658.63
2018-03-16T03:49:29.362Z,97662.94
2018-03-16T03:51:56.915Z,97661.34
2018-03-16T03:54:24.444Z,97663.66
2018-03-16T03:56:51.991Z,97666.29
2018-03-16T03:59:19.523Z,97662.59
2018-03-16T04:01:47.092Z,97664.25
2018-03-16T04:04:15.333Z,97665.80
2018-03-16T04:06:42.890Z,97661.21
2018-03-16T04:09:10.435Z,97659.38
2018-03-16T04:11:37.999Z,97660.98
2018-03-16T04:14:05.539Z,97667.94
2018-03-16T04:16:33.096Z,97661.94
2018-03-16T04:19:00.608Z,97659.16
2018-03-16T04:21:28.164Z,97664.66
2018-03-16T04:23:55.695Z,97662.75
2018-03-16T04:26:23.207Z,97661.05
2018-03-16T04:28:50.768Z,97661.39
2018-03-16T04:31:18.313Z,97661.81
2018-03-16T04:33:45.865Z,97674.20
2018-03-16T04:36:13.405Z,97670.45
2018-03-16T04:38:40.964Z,97678.02
2018-03-16T04:41:08.484Z,97677.89
2018-03-16T04:43:36.036Z,97679.09
2018-03-16T04:46:03.565Z,97686.11
2018-03-16T04:48:31.113Z,97678.48
2018-03-16T04:50:58.652Z,97692.44
2018-03-16T04:53:26.224Z,97697.99
2018-03-16T04:55:53.836Z,97695.38
2018-03-16T04:58:21.470Z,97694.58
2018-03-16T05:00:48.980Z,97692.47
2018-03-16T05:03:16.576Z,97701.13
2018-03-16T05:05:44.086Z,97699.94
2018-03-16T05:08:11.644Z,97692.91
2018-03-16T05:10:39.160Z,97700.03
2018-03-16T05:13:06.704Z,97694.48
2018-03-16T05:15:34.241Z,97699.28
2018-03-16T05:18:01.822Z,97700.83
2018-03-16T05:20:29.352Z,97708.19
2018-03-16T05:22:56.907Z,97705.48
2018-03-16T05:25:24.451Z,97715.77
2018-03-16T05:27:52.028Z,97711.27
2018-03-16T05:30:19.545Z,97706.95
2018-03-16T05:32:47.114Z,97704.13
2018-03-16T05:35:14.968Z,97706.59
2018-03-16T05:37:43.066Z,97712.59
2018-03-16T05:40:10.605Z,97710.04
2018-03-16T05:42:40.911Z,97706.27
2018-03-16T05:45:08.492Z,97709.20
2018-03-16T05:47:36.532Z,97709.38
2018-03-16T05:50:04.634Z,97716.41
2018-03-16T05:52:32.239Z,97717.49
2018-03-16T05:54:59.799Z,97714.67
2018-03-16T05:57:27.309Z,97720.88
2018-03-16T05:59:54.861Z,97721.13
2018-03-16T06:02:22.411Z,97727.44
2018-03-16T06:04:49.986Z,97734.98
2018-03-16T06:07:17.521Z,97727.32
2018-03-16T06:09:45.092Z,97734.38
2018-03-16T06:12:12.852Z,97738.30
2018-03-16T06:14:41.019Z,97732.17
2018-03-16T06:17:09.103Z,97737.15
2018-03-16T06:19:36.755Z,97744.37
2018-03-16T06:22:04.310Z,97740.80
2018-03-16T06:24:31.886Z,97741.82
2018-03-16T06:26:59.407Z,97740.28
2018-03-16T06:29:26.985Z,97741.41
2018-03-16T06:31:54.510Z,97744.36
2018-03-16T06:34:22.064Z,97751.01
2018-03-16T06:36:49.795Z,97761.53
2018-03-16T06:39:17.405Z,97752.91
2018-03-16T06:41:44.924Z,97756.33
2018-03-16T06:44:12.476Z,97759.87
2018-03-16T06:46:40.109Z,97760.25
2018-03-16T06:49:07.665Z,97766.36
2018-03-16T06:51:35.211Z,97771.16
2018-03-16T06:54:02.772Z,97766.23
2018-03-16T06:56:30.327Z,97765.86
2018-03-16T06:58:57.900Z,97769.50
2018-03-16T07:01:25.429Z,97786.72
2018-03-16T07:03:52.992Z,97779.75
2018-03-16T07:06:20.513Z,97771.94
2018-03-16T07:08:48.151Z,97778.81
2018-03-16T07:11:15.696Z,97779.71
2018-03-16T07:13:43.251Z,97796.39
2018-03-16T07:16:10.781Z,97794.23
2018-03-16T07:18:38.295Z,97802.00
2018-03-16T07:21:05.861Z,97797.15
2018-03-16T07:23:33.390Z,97801.78
2018-03-16T07:26:00.938Z,97806.84
2018-03-16T07:28:28.466Z,97798.67
2018-03-16T07:30:56.087Z,97810.44
2018-03-16T07:33:23.579Z,97811.00
2018-03-16T07:35:51.149Z,97813.87
2018-03-16T07:38:18.671Z,97816.70
2018-03-16T07:40:47.128Z,97818.95
2018-03-16T07:43:14.674Z,97821.70
2018-03-16T07:45:47.806Z,97819.34
2018-03-16T07:48:15.320Z,97828.56
2018-03-16T07:50:42.885Z,97830.03
2018-03-16T07:53:10.411Z,97833.54
2018-03-16T07:55:37.970Z,97832.72
2018-03-16T07:58:05.566Z,97843.39
2018-03-16T08:00:33.111Z,97845.22
2018-03-16T08:03:00.645Z,97842.34
2018-03-16T08:05:28.196Z,97850.85
2018-03-16T08:07:55.723Z,97850.25
2018-03-16T08:10:23.268Z,97852.11
2018-03-16T08:12:50.818Z,97860.88
2018-03-16T08:15:18.405Z,97853.30
2018-03-16T08:17:46.909Z,97852.96
2018-03-16T08:20:16.543Z,97862.04
2018-03-16T08:22:45.772Z,97863.65
2018-03-16T08:25:14.451Z,97869.29
2018-03-16T08:27:42.930Z,97872.09
2018-03-16T08:30:11.733Z,97869.17
2018-03-16T08:32:42.873Z,97877.50
2018-03-16T08:35:12.612Z,97877.38
2018-03-16T08:37:41.981Z,97882.78
2018-03-16T08:40:09.696Z,97872.61
2018-03-16T08:42:39.919Z,97872.92
2018-03-16T08:45:09.725Z,97867.74
2018-03-16T08:47:38.625Z,97873.89
2018-03-16T08:50:08.981Z,97887.48
2018-03-16T08:52:38.126Z,97878.20
2018-03-16T08:55:06.647Z,97885.11
2018-03-16T08:57:35.148Z,97879.38
2018-03-16T09:00:03.540Z,97882.31
2018-03-16T09:02:31.096Z,97884.34
2018-03-16T09:05:01.283Z,97886.83
2018-03-16T09:07:30.283Z,97877.68
2018-03-16T09:10:01.252Z,97888.63
2018-03-16T09:12:31.248Z,97883.66
2018-03-16T09:14:59.829Z,97892.66
2018-03-16T09:17:30.363Z,97885.28
2018-03-16T09:20:00.916Z,97901.50
2018-03-16T09:22:31.225Z,97886.87
2018-03-16T09:25:04.051Z,97895.98
2018-03-16T09:27:34.536Z,97897.70
2018-03-16T09:30:03.035Z,97908.35
2018-03-16T09:32:32.647Z,97902.77
2018-03-16T09:35:00.531Z,97902.89
2018-03-16T09:37:29.736Z,97902.00
2018-03-16T09:39:57.955Z,97907.83
2018-03-16T09:42:26.539Z,97909.55
2018-03-16T09:44:54.987Z,97904.93
2018-03-16T09:47:22.536Z,97914.67
2018-03-16T09:49:50.055Z,97913.47
2018-03-16T09:52:18.285Z,97921.09
2018-03-16T09:54:57.570Z,97927.00
2018-03-16T09:57:25.117Z,97919.59
2018-03-16T09:59:52.680Z,97920.73
2018-03-16T10:02:20.241Z,97933.23
2018-03-16T10:04:48.565Z,97934.89
2018-03-16T10:07:16.107Z,97937.03
2018-03-16T10:09:43.628Z,97933.54
2018-03-16T10:12:11.172Z,97940.66
2018-03-16T10:14:38.692Z,97945.92
2018-03-16T10:17:06.232Z,97941.15
2018-03-16T10:19:33.761Z,97943.17
2018-03-16T10:22:01.321Z,97953.63
2018-03-16T10:24:28.852Z,97954.06
2018-03-16T10:26:56.404Z,97944.11
2018-03-16T10:29:23.929Z,97944.05
2018-03-16T10:31:51.496Z,97961.12
2018-03-16T10:34:19.016Z,97949.75
2018-03-16T10:36:46.612Z,97960.09
2018-03-16T10:39:14.153Z,97961.27
2018-03-16T10:41:41.739Z,97963.86
2018-03-16T10:44:09.263Z,97963.08
2018-03-16T10:46:36.808Z,97974.77
2018-03-16T10:49:04.360Z,97971.61
2018-03-16T10:51:35.326Z,97973.52
2018-03-16T10:54:05.725Z,97974.59
2018-03-16T10:56:37.397Z,97985.34
2018-03-16T10:59:06.088Z,97979.77
2018-03-16T11:01:41.727Z,97977.66
2018-03-16T11:04:16.586Z,97995.28
2018-03-16T11:09:44.963Z,97984.05
2018-03-16T11:12:13.462Z,97982.78
2018-03-16T11:14:41.074Z,97994.45
2018-03-16T11:17:10.045Z,97990.13
2018-03-16T11:19:39.727Z,97993.55
2018-03-16T11:22:09.800Z,97990.88
2018-03-16T11:24:38.329Z,97994.14
2018-03-16T11:27:06.845Z,97999.22
2018-03-16T11:29:36.933Z,97989.99
2018-03-16T11:32:05.956Z,97986.71
2018-03-16T11:34:35.618Z,97989.97
2018-03-16T11:37:04.043Z,97995.59
2018-03-16T11:39:31.819Z,98000.60
2018-03-16T11:41:59.737Z,97999.70
2018-03-16T11:44:29.140Z,97998.73
2018-03-16T11:46:59.367Z,97990.80
2018-03-16T11:49:29.413Z,97997.34
2018-03-16T11:51:59.439Z,97999.62
2018-03-16T11:54:27.710Z,97990.89
2018-03-16T11:56:56.181Z,97989.80
2018-03-16T11:59:25.497Z,97995.33
2018-03-16T12:01:53.187Z,97993.35
2018-03-16T12:04:23.030Z,97991.22
2018-03-16T12:06:51.172Z,97980.08
2018-03-16T12:09:20.396Z,97982.16
2018-03-16T12:11:49.030Z,97970.67
2018-03-16T12:14:19.012Z,97980.63
2018-03-16T12:16:47.788Z,97974.86
2018-03-16T12:19:17.079Z,97985.89
2018-03-16T12:21:44.844Z,97966.20
2018-03-16T12:24:12.406Z,97966.05
2018-03-16T12:26:43.455Z,97965.11
2018-03-16T12:29:11.140Z,97971.59
2018-03-16T12:31:39.483Z,97970.73
2018-03-16T12:34:08.547Z,97964.95
2018-03-16T12:36:36.141Z,97959.75
2018-03-16T12:39:04.066Z,97955.24
2018-03-16T12:41:31.708Z,97960.27
2018-03-16T12:44:01.107Z,97947.95
2018-03-16T12:46:31.821Z,97960.22
2018-03-16T12:48:59.576Z,97952.25
2018-03-16T12:51:27.745Z,97944.02
2018-03-16T12:54:01.394Z,97947.23
2018-03-16T12:56:30.446Z,97961.97
2018-03-16T12:59:00.617Z,97965.66
2018-03-16T13:01:29.234Z,97964.66
2018-03-16T13:04:00.266Z,97959.45
2018-03-16T13:06:30.879Z,97940.58
2018-03-16T13:08:58.691Z,97944.52
2018-03-16T13:11:26.488Z,97935.50
2018-03-16T13:13:55.456Z,97947.02
2018-03-16T13:16:23.056Z,97938.77
2018-03-16T13:18:52.888Z,97917.53
2018-03-16T13:21:22.756Z,97948.27
2018-03-16T13:23:50.860Z,97941.36
2018-03-16T13:26:21.733Z,97936.50
2018-03-16T13:28:57.343Z,97946.40
2018-03-16T13:31:29.844Z,97951.80
2018-03-16T13:34:03.652Z,97941.97
2018-03-16T13:36:36.928Z,97934.31
2018-03-16T13:39:09.929Z,97954.08
2018-03-16T13:41:51.421Z,97939.97
2018-03-16T13:44:24.783Z,97929.58
2018-03-16T13:47:01.126Z,97924.40
2018-03-16T13:49:38.548Z,97942.79
2018-03-16T13:52:13.611Z,97921.95
2018-03-16T13:54:50.300Z,97925.41
2018-03-16T13:57:24.644Z,97923.08
2018-03-16T13:59:58.318Z,97941.89
2018-03-16T14:02:32.173Z,97922.94
2018-03-16T14:05:07.112Z,97940.16
2018-03-16T14:07:43.070Z,97938.56
2018-03-16T14:10:16.248Z,97929.22
2018-03-16T14:18:05.285Z,97932.35
2018-03-16T14:20:36.083Z,97950.48
2018-03-16T14:23:03.778Z,97936.65
2018-03-16T14:25:33.736Z,97934.34
2018-03-16T14:28:02.432Z,97936.52
2018-03-16T14:30:30.582Z,97924.06
2018-03-16T14:32:58.227Z,97927.44
2018-03-16T14:35:30.629Z,97935.89
2018-03-16T14:38:00.533Z,97928.81
2018-03-16T14:40:30.214Z,97922.76
2018-03-16T14:42:59.744Z,97917.55
2018-03-16T14:45:27.830Z,97929.45
2018-03-16T14:47:56.161Z,97933.21
2018-03-16T14:50:25.715Z,97923.63
2018-03-16T14:52:55.243Z,97932.66
2018-03-16T14:55:23.374Z,97926.81
2018-03-16T14:57:54.418Z,97922.92
2018-03-16T15:00:25.044Z,97919.57
2018-03-16T15:02:55.178Z,97922.51
2018-03-16T15:05:26.865Z,97933.84
2018-03-16T15:07:58.451Z,97919.13
2018-03-16T15:10:26.647Z,97921.46
2018-03-16T15:12:56.007Z,97925.69
2018-03-16T15:15:25.077Z,97928.20
2018-03-16T15:17:55.690Z,97931.39
2018-03-16T15:20:23.501Z,97926.16
2018-03-16T15:22:51.017Z,97918.42
2018-03-16T15:25:18.573Z,97921.64
2018-03-16T15:27:46.104Z,97918.46
2018-03-16T15:30:13.799Z,97907.09
2018-03-16T15:32:41.464Z,97896.69
2018-03-16T15:35:09.012Z,97897.80
2018-03-16T15:37:36.548Z,97891.41
2018-03-16T15:40:04.104Z,97884.38
2018-03-16T15:42:31.692Z,97882.16
2018-03-16T15:44:59.212Z,97885.42
2018-03-16T15:47:26.788Z,97884.02
2018-03-16T15:49:54.321Z,97891.63
2018-03-16T15:52:21.897Z,97886.83
2018-03-16T15:54:49.469Z,97881.05
2018-03-16T15:57:17.029Z,97878.91
2018-03-16T15:59:44.592Z,97875.16
2018-03-16T16:02:12.177Z,97868.42
2018-03-16T16:04:39.693Z,97866.91
2018-03-16T16:07:07.255Z,97867.45
2018-03-16T16:09:34.780Z,97873.76
2018-03-16T16:12:02.346Z,97870.28
2018-03-16T16:14:29.859Z,97869.56
2018-03-16T16:16:57.419Z,97873.43
2018-03-16T16:19:24.959Z,97887.08
2018-03-16T16:21:52.521Z,97870.59
2018-03-16T16:24:20.054Z,97879.42
2018-03-16T16:26:47.613Z,97882.90
2018-03-16T16:29:15.130Z,97882.11
2018-03-16T16:31:42.680Z,97881.03
2018-03-16T16:34:10.306Z,97887.22
2018-03-16T16:36:37.870Z,97895.95
2018-03-16T16:39:09.270Z,97886.91
2018-03-16T16:41:41.830Z,97885.19
2018-03-16T16:44:15.230Z,97883.31
2018-03-16T16:46:44.230Z,97891.98
2018-03-16T16:49:19.006Z,97888.69
2018-03-16T16:51:48.079Z,97889.47
2018-03-16T16:54:17.764Z,97898.22
2018-03-16T16:56:45.409Z,97905.91
2018-03-16T16:59:16.145Z,97905.50
2018-03-16T17:01:43.850Z,97907.48
2018-03-16T17:04:14.808Z,97905.19
2018-03-16T17:06:43.289Z,97899.41
2018-03-16T17:09:15.224Z,97907.39
2018-03-16T17:11:48.828Z,97905.37
2018-03-16T17:14:19.274Z,97912.22
2018-03-16T17:16:51.879Z,97911.63
2018-03-16T17:19:20.374Z,97923.95
2018-03-16T17:21:50.466Z,97913.20
2018-03-16T17:24:18.362Z,97905.63
2018-03-16T17:26:46.592Z,97917.19
2018-03-16T17:29:14.217Z,97912.89
2018-03-16T17:31:47.774Z,97909.72
2018-03-16T17:34:15.539Z,97915.02
2018-03-16T17:36:44.508Z,97930.66
2018-03-16T17:39:14.538Z,97923.97
2018-03-16T17:41:42.244Z,97925.13
2018-03-16T17:44:10.743Z,97926.39
2018-03-16T17:46:39.931Z,97929.09
2018-03-16T17:49:07.684Z,97933.27
2018-03-16T17:51:35.224Z,97932.05
2018-03-16T17:54:06.223Z,97930.53
2018-03-16T17:56:38.589Z,97929.77
2018-03-16T17:59:06.326Z,97928.84
2018-03-16T18:01:35.861Z,97928.45
2018-03-16T18:04:06.327Z,97936.11
2018-03-16T18:06:36.969Z,97935.75
2018-03-16T18:09:07.269Z,97935.34
2018-03-16T18:11:36.001Z,97930.05
2018-03-16T18:14:04.335Z,97936.16
2018-03-16T18:16:32.051Z,97933.70
2018-03-16T18:19:02.920Z,97931.61
2018-03-16T18:21:32.342Z,97930.46
2018-03-16T18:24:00.283Z,97935.54
2018-03-16T18:26:28.996Z,97933.13
2018-03-16T18:28:58.416Z,97935.28
2018-03-16T18:31:28.449Z,97936.75
2018-03-16T18:33:56.396Z,97944.78
2018-03-16T18:36:26.276Z,97918.65
2018-03-16T18:38:54.733Z,97950.45
2018-03-16T18:41:25.045Z,97945.09
2018-03-16T18:43:54.770Z,97948.59
2018-03-16T18:46:24.544Z,97950.16
2018-03-16T18:48:53.683Z,97952.39
2018-03-16T18:51:23.393Z,97953.63
2018-03-16T18:53:51.875Z,97957.55
2018-03-16T18:56:22.362Z,97952.63
2018-03-16T18:58:50.098Z,97955.31
2018-03-16T19:01:17.721Z,97960.11
2018-03-16T19:03:45.272Z,97966.20
2018-03-16T19:06:14.918Z,97972.43
2018-03-16T19:08:45.259Z,97973.67
2018-03-16T19:11:15.776Z,97974.47
2018-03-16T19:13:46.183Z,97962.45
2018-03-16T19:16:17.358Z,97967.13
2018-03-16T19:18:47.762Z,97979.55
2018-03-16T19:21:19.296Z,97975.95
2018-03-16T19:23:49.860Z,97987.42
2018-03-16T19:26:19.880Z,97983.36
2018-03-16T19:28:51.963Z,97982.72
2018-03-16T19:31:22.900Z,97989.03
2018-03-16T19:33:53.597Z,97991.09
2018-03-16T19:36:27.615Z,97985.72
2018-03-16T19:38:58.841Z,97980.21
2018-03-16T19:41:29.458Z,97985.28
2018-03-16T19:44:00.632Z,97990.22
2018-03-16T19:46:28.369Z,97991.75
2018-03-16T19:48:55.943Z,97994.56
2018-03-16T19:51:23.540Z,97998.63
2018-03-16T19:53:52.191Z,97993.53
2018-03-16T19:56:20.660Z,97987.33
2018-03-16T19:58:48.223Z,97989.54
2018-03-16T20:01:15.912Z,97986.81
2018-03-16T20:03:43.459Z,97980.91
2018-03-16T20:06:11.127Z,97987.43
2018-03-16T20:08:38.683Z,97990.25
2018-03-16T20:11:06.455Z,97977.48
2018-03-16T20:13:34.036Z,97988.47
2018-03-16T20:16:01.571Z,97978.66
2018-03-16T20:18:29.170Z,97983.13
2018-03-16T20:20:56.722Z,97987.83
2018-03-16T20:23:25.125Z,97991.52
2018-03-16T20:25:52.661Z,97987.36
2018-03-16T20:28:20.227Z,98003.39
2018-03-16T20:30:47.752Z,97992.34
2018-03-16T20:33:15.300Z,97997.70
2018-03-16T20:35:42.813Z,98001.48
2018-03-16T20:38:10.388Z,97996.28
2018-03-16T20:40:38.084Z,98000.89
2018-03-16T20:43:05.649Z,97993.84
2018-03-16T20:45:33.170Z,97987.30
2018-03-16T20:48:02.234Z,97992.73
2018-03-16T20:50:30.052Z,97990.95
2018-03-16T20:52:57.694Z,97997.11
2018-03-16T20:55:25.319Z,97990.30
2018-03-16T20:57:52.806Z,97989.41
2018-03-16T21:00:20.869Z,97992.27
2018-03-16T21:02:52.297Z,97990.53
2018-03-16T21:05:23.012Z,97998.61
2018-03-16T21:07:54.133Z,97985.84
2018-03-16T21:10:24.507Z,97983.35
2018-03-16T21:12:55.791Z,97980.70
2018-03-16T21:15:28.114Z,97983.25
2018-03-16T21:17:57.027Z,97982.05
2018-03-16T21:20:26.196Z,97989.72
2018-03-16T21:22:54.096Z,97992.39
2018-03-16T21:25:21.706Z,97982.97
2018-03-16T21:27:50.136Z,97986.30
2018-03-16T21:30:19.076Z,97987.06
2018-03-16T21:32:47.135Z,97985.09
2018-03-16T21:35:15.035Z,97978.71
2018-03-16T21:37:43.397Z,97975.80
2018-03-16T21:40:11.066Z,97969.39
2018-03-16T21:42:38.594Z,97970.45
2018-03-16T21:45:06.835Z,97961.71
2018-03-16T21:47:34.461Z,97964.23
2018-03-16T21:50:02.428Z,97962.59
2018-03-16T21:52:31.662Z,97962.72
2018-03-16T21:54:59.291Z,97951.77
2018-03-16T21:57:27.290Z,97951.76
2018-03-16T21:59:56.862Z,97939.95
2018-03-16T22:02:25.476Z,97939.31
2018-03-16T22:04:53.247Z,97943.73
2018-03-16T22:07:21.453Z,97940.42
2018-03-16T22:09:49.392Z,97938.43
2018-03-16T22:12:18.069Z,97935.16
2018-03-16T22:14:46.426Z,97943.45
2018-03-16T22:17:14.644Z,97935.31
2018-03-16T22:19:42.481Z,97931.00
2018-03-16T22:22:10.275Z,97934.81
2018-03-16T22:24:38.318Z,97919.48
2018-03-16T22:27:05.969Z,97930.38
2018-03-16T22:29:33.937Z,97924.39
2018-03-16T22:32:01.528Z,97922.90
2018-03-16T22:34:29.092Z,97926.05
2018-03-16T22:36:57.396Z,97923.48
2018-03-16T22:39:25.170Z,97924.30
2018-03-16T22:41:52.751Z,97916.69
2018-03-16T22:44:20.878Z,97911.29
2018-03-16T22:46:48.387Z,97917.59
2018-03-16T22:49:19.371Z,97912.81
2018-03-16T22:51:47.832Z,97912.98
2018-03-16T22:54:15.428Z,97908.33
2018-03-16T22:56:43.278Z,97912.37
2018-03-16T22:59:10.864Z,97908.65
2018-03-16T23:01:38.474Z,97900.73
2018-03-16T23:04:06.430Z,97901.69
2018-03-16T23:06:34.251Z,97896.41
2018-03-16T23:09:02.875Z,97901.67
2018-03-16T23:11:30.797Z,97909.23
2018-03-16T23:13:59.783Z,97868.08
2018-03-16T23:16:27.378Z,97906.37
2018-03-16T23:18:54.942Z,97908.77
2018-03-16T23:21:22.492Z,97908.25
2018-03-16T23:23:50.016Z,97906.08
2018-03-16T23:26:18.431Z,97913.92
2018-03-16T23:28:46.545Z,97917.31
2018-03-16T23:31:15.001Z,97920.23
2018-03-16T23:33:43.580Z,97925.67
2018-03-16T23:36:12.791Z,97929.88
2018-03-16T23:38:43.696Z,97916.70
2018-03-16T23:41:11.528Z,97926.55
2018-03-16T23:43:39.325Z,97916.97
2018-03-16T23:46:07.514Z,97906.16
2018-03-16T23:48:36.321Z,97899.31
2018-03-16T23:51:03.867Z,97896.81
2018-03-16T23:53:32.973Z,97903.13
2018-03-16T23:56:00.765Z,97905.12
2018-03-16T23:58:28.756Z,97894.81
